createdAt,value
2023-02-15T00:02:46.681Z,17.40
2023-02-15T00:07:50.510Z,18.13
2023-02-15T00:12:52.974Z,16.33
2023-02-15T00:17:55.229Z,16.40
2023-02-15T00:22:58.832Z,14.77
2023-02-15T00:28:02.973Z,14.93
2023-02-15T00:33:05.090Z,13.73
2023-02-15T00:38:08.701Z,13.83
2023-02-15T00:43:11.131Z,14.23
2023-02-15T00:48:13.392Z,13.73
2023-02-15T00:53:16.818Z,13.10
2023-02-15T00:58:19.308Z,13.37
2023-02-15T01:03:23.141Z,13.83
2023-02-15T01:08:26.985Z,13.10
2023-02-15T01:13:29.127Z,14.10
2023-02-15T01:18:31.457Z,13.57
2023-02-15T01:23:35.548Z,13.57
2023-02-15T01:28:38.292Z,13.30
2023-02-15T01:33:40.877Z,14.97
2023-02-15T01:38:44.678Z,15.27
2023-02-15T01:43:49.730Z,14.20
2023-02-15T01:48:56.171Z,15.00
2023-02-15T01:54:04.260Z,12.57
2023-02-15T01:59:11.389Z,12.80
2023-02-15T02:04:18.791Z,13.23
2023-02-15T02:09:22.636Z,12.73
2023-02-15T02:14:25.707Z,13.07
2023-02-15T02:20:21.948Z,13.40
2023-02-15T02:26:05.405Z,14.00
2023-02-15T02:31:30.869Z,15.50
2023-02-15T02:36:42.881Z,16.20
2023-02-15T02:41:52.523Z,14.00
2023-02-15T02:47:00.481Z,14.97
2023-02-15T02:52:06.823Z,14.47
2023-02-15T02:57:11.735Z,15.47
2023-02-15T03:02:19.002Z,15.97
2023-02-15T03:07:25.752Z,15.67
2023-02-15T03:12:33.179Z,15.83
2023-02-15T03:17:38.240Z,15.37
2023-02-15T03:22:45.597Z,15.33
2023-02-15T03:27:50.814Z,15.03
2023-02-15T03:32:54.468Z,15.87
2023-02-15T03:38:02.592Z,14.63
2023-02-15T03:43:12.533Z,16.07
2023-02-15T03:48:15.164Z,15.77
2023-02-15T03:53:22.261Z,15.97
2023-02-15T03:58:41.734Z,16.80
2023-02-15T04:03:47.780Z,16.23
2023-02-15T04:09:08.867Z,16.20
2023-02-15T04:14:24.830Z,17.03
2023-02-15T04:19:44.487Z,16.50
2023-02-15T04:25:05.436Z,17.40
2023-02-15T04:30:09.635Z,15.67
2023-02-15T04:35:12.661Z,16.87
2023-02-15T04:40:19.339Z,15.73
2023-02-15T04:45:22.063Z,15.63
2023-02-15T04:50:24.587Z,15.67
2023-02-15T04:55:28.383Z,16.30
2023-02-15T05:00:30.594Z,16.70
2023-02-15T05:05:33.097Z,16.10
2023-02-15T05:10:36.636Z,16.13
2023-02-15T05:15:38.989Z,16.23
2023-02-15T05:20:41.030Z,15.97
2023-02-15T05:26:07.264Z,15.83
2023-02-15T05:31:12.445Z,17.00
2023-02-15T05:36:15.340Z,16.17
2023-02-15T05:41:20.059Z,17.53
2023-02-15T05:46:23.560Z,17.23
2023-02-15T05:51:26.360Z,17.40
2023-02-15T05:56:30.826Z,16.57
2023-02-15T06:01:33.258Z,15.30
2023-02-15T06:06:35.748Z,15.87
2023-02-15T06:11:39.085Z,16.43
2023-02-15T06:16:41.433Z,15.90
2023-02-15T06:21:43.775Z,15.27
2023-02-15T06:26:47.165Z,15.03
2023-02-15T06:31:49.457Z,16.03
2023-02-15T06:36:51.706Z,16.30
2023-02-15T06:41:55.416Z,14.93
2023-02-15T06:46:57.751Z,17.30
2023-02-15T06:52:00.096Z,12.97
2023-02-15T06:57:03.526Z,14.97
2023-02-15T07:02:05.713Z,15.23
2023-02-15T07:07:11.549Z,16.03
2023-02-15T07:12:32.453Z,15.83
2023-02-15T07:17:36.349Z,15.57
2023-02-15T07:22:38.846Z,16.30
2023-02-15T07:27:42.950Z,16.37
2023-02-15T07:32:59.397Z,16.97
2023-02-15T07:38:02.179Z,16.47
2023-02-15T07:43:06.084Z,17.77
2023-02-15T07:48:08.794Z,15.57
2023-02-15T07:53:11.310Z,16.73
2023-02-15T07:58:15.057Z,17.20
2023-02-15T08:03:17.251Z,15.27
2023-02-15T08:08:31.818Z,14.43
2023-02-15T08:13:35.478Z,12.77
2023-02-15T08:18:37.707Z,14.47
2023-02-15T08:23:39.599Z,13.17
2023-02-15T08:28:43.755Z,14.83
2023-02-15T08:33:47.740Z,9.50
2023-02-15T08:38:50.108Z,16.77
2023-02-15T08:43:56.188Z,15.20
2023-02-15T08:48:59.457Z,13.80
2023-02-15T08:54:06.690Z,14.50
2023-02-15T08:59:15.551Z,13.30
2023-02-15T09:04:18.547Z,13.67
2023-02-15T09:09:22.381Z,14.13
2023-02-15T09:14:27.404Z,13.57
2023-02-15T09:19:29.618Z,12.37
2023-02-15T09:24:34.914Z,11.50
2023-02-15T09:29:38.725Z,12.27
2023-02-15T09:34:40.660Z,11.47
2023-02-15T09:39:47.735Z,14.00
2023-02-15T09:45:13.793Z,14.00
2023-02-15T09:50:24.342Z,13.90
2023-02-15T09:55:38.659Z,12.00
2023-02-15T10:00:50.958Z,12.53
2023-02-15T10:06:05.892Z,12.33
2023-02-15T10:11:48.552Z,13.77
2023-02-15T10:16:58.904Z,13.40
2023-02-15T10:22:09.904Z,14.03
2023-02-15T10:27:15.776Z,11.40
2023-02-15T10:32:25.906Z,11.73
2023-02-15T10:37:54.658Z,11.93
2023-02-15T10:43:18.711Z,13.17
2023-02-15T10:48:47.849Z,13.60
2023-02-15T10:54:06.934Z,12.43
2023-02-15T10:59:27.256Z,12.67
2023-02-15T11:04:55.567Z,12.93
2023-02-15T11:10:07.920Z,12.20
2023-02-15T11:15:22.145Z,14.00
2023-02-15T11:20:32.338Z,13.43
2023-02-15T11:25:36.810Z,12.93
2023-02-15T11:30:46.028Z,13.03
2023-02-15T11:35:56.471Z,14.30
2023-02-15T11:41:02.089Z,14.30
2023-02-15T11:46:04.751Z,12.87
2023-02-15T11:51:11.722Z,14.27
2023-02-15T11:56:20.114Z,14.73
2023-02-15T12:01:27.369Z,14.00
2023-02-15T12:06:34.766Z,12.47
2023-02-15T12:11:40.380Z,12.67
2023-02-15T12:16:45.400Z,11.50
2023-02-15T12:21:53.471Z,13.60
2023-02-15T12:27:01.971Z,12.13
2023-02-15T12:32:05.432Z,11.00
2023-02-15T12:37:18.249Z,10.83
2023-02-15T12:42:20.831Z,12.00
2023-02-15T12:47:28.961Z,11.30
2023-02-15T12:52:32.485Z,11.03
2023-02-15T12:57:35.941Z,10.50
2023-02-15T13:02:44.072Z,12.27
2023-02-15T13:07:52.372Z,11.02
2023-02-15T13:12:55.432Z,10.88
2023-02-15T13:17:59.526Z,11.45
2023-02-15T13:23:07.426Z,11.60
2023-02-15T13:28:16.945Z,12.18
2023-02-15T13:33:27.484Z,11.82
2023-02-15T13:39:00.549Z,12.43
2023-02-15T13:44:13.435Z,11.52
2023-02-15T13:49:28.439Z,11.93
2023-02-15T13:54:44.740Z,12.32
2023-02-15T14:00:00.540Z,7.30
2023-02-15T14:05:24.284Z,12.45
2023-02-15T14:10:42.023Z,11.35
2023-02-15T14:15:49.497Z,11.13
2023-02-15T14:21:03.415Z,9.93
2023-02-15T14:26:12.567Z,10.15
2023-02-15T14:31:17.991Z,11.73
2023-02-15T14:36:22.333Z,12.23
2023-02-15T14:41:34.170Z,12.35
2023-02-15T14:46:44.194Z,12.13
2023-02-15T14:52:06.236Z,12.10
2023-02-15T14:57:39.811Z,13.10
2023-02-15T15:02:49.654Z,13.60
2023-02-15T15:07:54.931Z,12.65
2023-02-15T15:12:59.370Z,13.00
2023-02-15T15:18:03.344Z,13.40
2023-02-15T15:23:44.393Z,13.13
2023-02-15T15:29:04.228Z,14.27
2023-02-15T15:34:44.137Z,13.40
2023-02-15T15:40:32.598Z,13.60
2023-02-15T15:46:09.778Z,12.97
2023-02-15T15:51:16.742Z,11.93
2023-02-15T15:56:22.232Z,11.47
2023-02-15T16:01:30.887Z,13.00
2023-02-15T16:06:36.960Z,12.13
2023-02-15T16:11:41.293Z,12.87
2023-02-15T16:16:53.285Z,13.37
2023-02-15T16:21:57.370Z,13.50
2023-02-15T16:27:24.042Z,13.10
2023-02-15T16:32:30.080Z,11.53
2023-02-15T16:37:36.201Z,12.37
2023-02-15T16:42:38.898Z,12.70
2023-02-15T16:47:46.203Z,13.80
2023-02-15T16:52:49.652Z,12.80
2023-02-15T16:57:54.212Z,14.37
2023-02-15T17:03:02.819Z,14.00
2023-02-15T17:08:18.696Z,13.37
2023-02-15T17:13:24.829Z,13.60
2023-02-15T17:18:32.396Z,15.00
2023-02-15T17:23:39.076Z,15.50
2023-02-15T17:28:51.799Z,16.53
2023-02-15T17:33:58.284Z,14.13
2023-02-15T17:39:12.283Z,14.23
2023-02-15T17:44:17.303Z,15.93
2023-02-15T17:49:28.496Z,17.33
2023-02-15T17:54:49.576Z,15.30
2023-02-15T18:00:09.388Z,16.77
2023-02-15T18:05:34.864Z,18.30
2023-02-15T18:10:58.799Z,15.33
2023-02-15T18:16:03.809Z,15.37
2023-02-15T18:21:12.207Z,15.33
2023-02-15T18:26:27.794Z,14.40
2023-02-15T18:31:32.591Z,15.77
2023-02-15T18:36:46.208Z,18.37
2023-02-15T18:41:49.933Z,17.33
2023-02-15T18:46:53.713Z,17.67
2023-02-15T18:52:05.812Z,19.27
2023-02-15T18:57:12.774Z,18.53
2023-02-15T19:02:19.980Z,18.37
2023-02-15T19:07:30.474Z,19.33
2023-02-15T19:12:35.516Z,18.60
2023-02-15T19:17:40.283Z,19.57
2023-02-15T19:22:49.144Z,17.90
2023-02-15T19:27:54.375Z,17.50
2023-02-15T19:33:03.002Z,18.90
2023-02-15T19:38:19.393Z,18.57
2023-02-15T19:43:26.459Z,19.83
2023-02-15T19:48:31.908Z,18.53
2023-02-15T19:53:39.897Z,17.90
2023-02-15T19:58:45.523Z,20.00
2023-02-15T20:03:54.344Z,18.23
2023-02-15T20:09:02.533Z,19.40
2023-02-15T20:14:06.994Z,21.80
2023-02-15T20:19:15.158Z,23.17
2023-02-15T20:24:24.321Z,25.23
2023-02-15T20:29:28.446Z,20.97
2023-02-15T20:34:35.037Z,15.40
2023-02-15T20:39:50.214Z,13.30
2023-02-15T20:44:55.081Z,12.83
2023-02-15T20:50:03.216Z,12.67
2023-02-15T21:01:33.446Z,13.53
2023-02-15T21:06:38.237Z,14.00
2023-02-15T21:11:43.151Z,13.60
2023-02-15T21:16:50.058Z,12.47
2023-02-15T21:21:56.176Z,13.07
2023-02-15T21:27:08.360Z,11.27
2023-02-15T21:32:13.490Z,11.60
2023-02-15T21:37:31.966Z,11.37
2023-02-15T21:42:51.848Z,10.40
2023-02-15T21:47:56.727Z,11.70
2023-02-15T21:52:59.768Z,10.43
2023-02-15T21:58:02.940Z,11.43
2023-02-15T22:03:07.627Z,12.27
2023-02-15T22:08:14.424Z,13.20
2023-02-15T22:13:19.407Z,13.03
2023-02-15T22:18:25.552Z,14.17
2023-02-15T22:23:28.016Z,14.07
2023-02-15T22:28:34.164Z,13.03
2023-02-15T22:33:37.919Z,12.43
2023-02-15T22:38:40.127Z,13.57
2023-02-15T22:43:44.988Z,13.13
2023-02-15T22:48:49.645Z,12.70
2023-02-15T22:53:53.997Z,14.30
2023-02-15T22:59:01.712Z,14.30
2023-02-15T23:04:05.992Z,13.50
2023-02-15T23:09:08.360Z,13.17
2023-02-15T23:14:25.288Z,13.47
2023-02-15T23:19:29.172Z,14.60
2023-02-15T23:24:34.678Z,13.73
2023-02-15T23:29:36.666Z,13.97
2023-02-15T23:34:40.287Z,13.53
2023-02-15T23:39:59.351Z,15.00
2023-02-15T23:45:02.667Z,14.20
2023-02-15T23:50:17.264Z,13.33
2023-02-15T23:55:20.123Z,13.53
